createdAt,value
2018-08-18T00:00:16.001Z,90.00
2018-08-18T00:02:44.526Z,92.40
2018-08-18T00:05:14.231Z,91.60
2018-08-18T00:07:43.041Z,90.10
2018-08-18T00:10:15.178Z,90.90
2018-08-18T00:12:43.700Z,91.20
2018-08-18T00:15:12.169Z,91.00
2018-08-18T00:17:40.539Z,90.30
2018-08-18T00:20:18.097Z,90.20
2018-08-18T00:22:46.508Z,90.10
2018-08-18T00:25:14.915Z,90.80
2018-08-18T00:27:43.300Z,89.40
2018-08-18T00:30:17.281Z,84.80
2018-08-18T00:32:45.666Z,87.80
2018-08-18T00:35:14.118Z,88.90
2018-08-18T00:37:42.533Z,88.50
2018-08-18T00:40:11.533Z,88.70
2018-08-18T00:42:40.189Z,83.20
2018-08-18T00:45:10.873Z,79.20
2018-08-18T00:47:39.561Z,83.70
2018-08-18T00:50:08.908Z,78.20
2018-08-18T00:52:37.511Z,77.10
2018-08-18T00:55:05.967Z,81.80
2018-08-18T00:57:34.313Z,77.40
2018-08-18T01:00:02.872Z,78.20
2018-08-18T01:02:31.276Z,79.40
2018-08-18T01:05:00.836Z,84.70
2018-08-18T01:07:30.384Z,83.90
2018-08-18T01:09:59.156Z,82.50
2018-08-18T01:12:28.129Z,77.70
2018-08-18T01:14:56.848Z,76.20
2018-08-18T01:17:25.362Z,76.10
2018-08-18T01:19:55.481Z,76.10
2018-08-18T01:22:23.866Z,79.40
2018-08-18T01:24:52.782Z,76.80
2018-08-18T01:27:21.379Z,80.10
2018-08-18T01:29:56.085Z,77.30
2018-08-18T01:32:24.721Z,77.40
2018-08-18T01:34:53.767Z,78.30
2018-08-18T01:37:22.110Z,77.80
2018-08-18T01:39:52.944Z,79.40
2018-08-18T01:42:21.466Z,77.90
2018-08-18T01:44:52.756Z,77.80
2018-08-18T01:47:21.345Z,77.30
2018-08-18T01:49:49.718Z,76.70
2018-08-18T01:52:20.080Z,77.20
2018-08-18T01:54:48.497Z,78.30
2018-08-18T01:57:19.988Z,78.00
2018-08-18T01:59:48.622Z,74.20
2018-08-18T02:02:20.550Z,75.30
2018-08-18T02:04:49.451Z,75.80
2018-08-18T02:07:25.071Z,77.30
2018-08-18T02:09:53.975Z,76.10
2018-08-18T02:12:22.709Z,76.70
2018-08-18T02:14:51.190Z,76.80
2018-08-18T02:17:35.986Z,74.70
2018-08-18T02:20:06.842Z,77.90
2018-08-18T02:22:35.153Z,77.40
2018-08-18T02:25:03.985Z,75.80
2018-08-18T02:27:32.341Z,75.30
2018-08-18T02:30:22.732Z,74.60
2018-08-18T02:32:51.085Z,74.50
2018-08-18T02:35:20.729Z,77.20
2018-08-18T02:37:49.165Z,73.00
2018-08-18T02:40:18.095Z,72.90
2018-08-18T02:42:46.496Z,76.30
2018-08-18T02:45:15.516Z,73.00
2018-08-18T02:47:43.825Z,72.30
2018-08-18T02:50:13.378Z,72.00
2018-08-18T02:52:41.703Z,73.20
2018-08-18T02:55:13.044Z,73.10
2018-08-18T02:57:44.021Z,74.30
2018-08-18T03:00:23.420Z,76.10
2018-08-18T03:02:51.807Z,77.10
2018-08-18T03:05:20.183Z,74.90
2018-08-18T03:07:49.427Z,72.90
2018-08-18T03:10:23.215Z,72.90
2018-08-18T03:16:14.173Z,72.80
2018-08-18T03:18:49.881Z,74.40
2018-08-18T03:21:24.892Z,73.70
2018-08-18T03:24:07.639Z,75.00
2018-08-18T03:26:39.517Z,72.70
2018-08-18T03:29:08.140Z,76.30
2018-08-18T03:31:37.625Z,75.90
2018-08-18T03:34:06.373Z,72.80
2018-08-18T03:36:39.109Z,73.80
2018-08-18T03:39:17.050Z,74.80
2018-08-18T03:41:45.768Z,77.90
2018-08-18T03:44:14.144Z,77.80
2018-08-18T03:46:42.514Z,77.20
2018-08-18T03:49:10.857Z,79.20
2018-08-18T03:51:46.065Z,79.30
2018-08-18T03:54:17.445Z,78.20
2018-08-18T03:56:47.033Z,77.80
2018-08-18T03:59:15.490Z,79.00
2018-08-18T04:01:51.255Z,78.50
2018-08-18T04:04:20.810Z,78.20
2018-08-18T04:06:50.440Z,79.40
2018-08-18T04:09:22.996Z,79.40
2018-08-18T04:11:51.766Z,78.70
2018-08-18T04:14:27.194Z,80.20
2018-08-18T04:16:56.414Z,81.40
2018-08-18T04:19:24.818Z,81.10
2018-08-18T04:21:54.074Z,81.00
2018-08-18T04:24:27.438Z,81.60
2018-08-18T04:26:55.780Z,82.40
2018-08-18T04:29:24.081Z,83.10
2018-08-18T04:31:52.466Z,82.50
2018-08-18T04:34:20.781Z,81.80
2018-08-18T04:36:49.114Z,82.40
2018-08-18T04:39:17.395Z,83.70
2018-08-18T04:41:45.722Z,84.00
2018-08-18T04:44:14.045Z,83.40
2018-08-18T04:46:42.368Z,83.50
2018-08-18T04:49:10.702Z,83.60
2018-08-18T04:51:39.083Z,81.60
2018-08-18T04:54:08.084Z,81.80
2018-08-18T04:56:36.433Z,81.60
2018-08-18T04:59:04.929Z,81.10
2018-08-18T05:01:33.480Z,81.60
2018-08-18T05:04:06.729Z,82.00
2018-08-18T05:06:36.886Z,80.90
2018-08-18T05:09:09.184Z,81.60
2018-08-18T05:11:37.721Z,80.80
2018-08-18T05:14:06.590Z,79.70
2018-08-18T05:16:35.102Z,78.90
2018-08-18T05:19:03.491Z,78.80
2018-08-18T05:21:31.846Z,78.90
2018-08-18T05:24:20.594Z,78.90
2018-08-18T05:26:49.606Z,79.20
2018-08-18T05:29:17.928Z,79.20
2018-08-18T05:31:46.695Z,80.00
2018-08-18T05:34:15.161Z,79.40
2018-08-18T05:36:44.315Z,78.30
2018-08-18T05:39:12.735Z,77.30
2018-08-18T05:41:41.129Z,78.40
2018-08-18T05:44:09.543Z,79.00
2018-08-18T05:46:37.867Z,78.20
2018-08-18T05:49:13.391Z,76.70
2018-08-18T05:51:44.373Z,75.90
2018-08-18T05:54:15.042Z,76.60
2018-08-18T05:56:44.639Z,75.80
2018-08-18T05:59:12.991Z,75.20
2018-08-18T06:01:41.779Z,75.80
2018-08-18T06:04:12.131Z,75.40
2018-08-18T06:06:41.502Z,75.40
2018-08-18T06:09:11.418Z,73.80
2018-08-18T06:11:39.998Z,74.10
2018-08-18T06:14:09.427Z,74.40
2018-08-18T06:16:37.991Z,75.70
2018-08-18T06:19:06.561Z,76.70
2018-08-18T06:21:35.053Z,76.60
2018-08-18T06:24:03.503Z,73.40
2018-08-18T06:26:31.952Z,76.20
2018-08-18T06:29:00.328Z,78.30
2018-08-18T06:31:28.685Z,75.90
2018-08-18T06:33:57.062Z,75.00
2018-08-18T06:36:25.612Z,74.20
2018-08-18T06:38:53.996Z,75.10
2018-08-18T06:41:22.454Z,76.10
2018-08-18T06:43:50.786Z,75.90
2018-08-18T06:46:19.168Z,74.70
2018-08-18T06:48:47.486Z,72.30
2018-08-18T06:51:15.928Z,72.90
2018-08-18T06:53:48.491Z,72.20
2018-08-18T06:56:16.909Z,73.30
2018-08-18T06:58:45.533Z,72.50
2018-08-18T07:01:14.045Z,71.00
2018-08-18T07:03:45.017Z,71.10
2018-08-18T07:06:14.797Z,71.80
2018-08-18T07:08:48.854Z,72.30
2018-08-18T07:11:17.260Z,71.60
2018-08-18T07:13:46.791Z,72.20
2018-08-18T07:16:15.382Z,72.20
2018-08-18T07:18:43.786Z,72.30
2018-08-18T07:21:12.428Z,72.30
2018-08-18T07:23:41.122Z,72.30
2018-08-18T07:26:10.645Z,72.20
2018-08-18T07:28:39.212Z,72.30
2018-08-18T07:31:07.709Z,71.00
2018-08-18T07:33:36.276Z,70.90
2018-08-18T07:36:04.871Z,70.20
2018-08-18T07:38:41.759Z,69.20
2018-08-18T07:41:10.232Z,69.50
2018-08-18T07:43:40.232Z,69.20
2018-08-18T07:46:08.713Z,70.40
2018-08-18T07:48:38.222Z,69.60
2018-08-18T07:51:06.709Z,70.30
2018-08-18T07:53:35.196Z,70.70
2018-08-18T07:56:03.597Z,70.10
2018-08-18T07:58:38.734Z,70.60
2018-08-18T08:01:07.505Z,69.80
2018-08-18T08:03:36.094Z,70.00
2018-08-18T08:06:04.490Z,69.20
2018-08-18T08:08:38.546Z,69.20
2018-08-18T08:11:11.487Z,69.80
2018-08-18T08:13:39.950Z,69.80
2018-08-18T08:16:08.748Z,69.90
2018-08-18T08:18:38.482Z,69.80
2018-08-18T08:21:07.126Z,68.50
2018-08-18T08:23:35.781Z,68.40
2018-08-18T08:26:11.160Z,67.30
2018-08-18T08:28:50.294Z,68.30
2018-08-18T08:31:18.986Z,67.90
2018-08-18T08:33:51.399Z,67.60
2018-08-18T08:36:33.556Z,66.20
2018-08-18T08:39:05.426Z,65.90
2018-08-18T08:41:46.182Z,65.20
2018-08-18T08:44:14.825Z,64.70
2018-08-18T08:46:59.916Z,64.40
2018-08-18T08:49:28.409Z,64.40
2018-08-18T08:51:56.910Z,64.20
2018-08-18T08:54:30.998Z,64.60
2018-08-18T08:57:03.339Z,64.80
2018-08-18T08:59:33.130Z,64.90
2018-08-18T09:02:03.605Z,65.00
2018-08-18T09:04:33.553Z,63.40
2018-08-18T09:07:04.003Z,61.20
2018-08-18T09:09:32.565Z,61.60
2018-08-18T09:12:01.751Z,61.70
2018-08-18T09:14:31.642Z,61.20
2018-08-18T09:17:00.226Z,61.10
2018-08-18T09:19:28.942Z,61.40
2018-08-18T09:22:01.076Z,62.50
2018-08-18T09:24:30.670Z,62.00
2018-08-18T09:27:02.292Z,61.20
2018-08-18T09:29:48.508Z,61.40
2018-08-18T09:32:18.099Z,60.90
2018-08-18T09:34:53.256Z,61.60
2018-08-18T09:37:22.270Z,60.20
2018-08-18T09:39:50.644Z,59.50
2018-08-18T09:42:19.762Z,59.80
2018-08-18T09:44:49.601Z,59.00
2018-08-18T09:47:18.013Z,59.40
2018-08-18T09:49:46.433Z,59.00
2018-08-18T09:52:18.903Z,58.60
2018-08-18T09:54:47.368Z,57.50
2018-08-18T09:57:15.822Z,58.40
2018-08-18T09:59:44.189Z,57.80
2018-08-18T10:02:13.486Z,56.90
2018-08-18T10:04:41.901Z,56.40
2018-08-18T10:07:10.469Z,56.30
2018-08-18T10:09:38.829Z,56.40
2018-08-18T10:12:07.325Z,56.40
2018-08-18T10:14:35.724Z,56.50
2018-08-18T10:17:04.121Z,55.60
2018-08-18T10:19:33.394Z,56.50
2018-08-18T10:22:01.799Z,56.50
2018-08-18T10:24:30.230Z,55.90
2018-08-18T10:27:05.631Z,55.60
2018-08-18T10:29:34.000Z,56.20
2018-08-18T10:32:02.450Z,56.60
2018-08-18T10:34:32.010Z,55.30
2018-08-18T10:37:01.869Z,55.90
2018-08-18T10:39:30.282Z,55.30
2018-08-18T10:42:14.767Z,54.50
2018-08-18T10:44:50.058Z,55.70
2018-08-18T10:47:19.841Z,54.60
2018-08-18T10:50:05.102Z,54.10
2018-08-18T10:52:50.276Z,55.20
2018-08-18T10:55:20.052Z,54.60
2018-08-18T10:57:59.513Z,53.00
2018-08-18T11:00:31.642Z,52.70
2018-08-18T11:03:04.303Z,53.50
2018-08-18T11:05:32.946Z,53.50
2018-08-18T11:08:05.369Z,53.50
2018-08-18T11:10:36.601Z,53.40
2018-08-18T11:13:05.244Z,52.80
2018-08-18T11:15:33.690Z,53.10
2018-08-18T11:18:02.182Z,52.50
2018-08-18T11:20:31.877Z,52.60
2018-08-18T11:23:06.379Z,51.60
2018-08-18T11:25:41.365Z,52.40
2018-08-18T11:28:17.426Z,51.70
2018-08-18T11:30:45.896Z,51.60
2018-08-18T11:33:34.744Z,51.10
2018-08-18T11:36:04.189Z,51.90
2018-08-18T11:38:33.474Z,52.00
2018-08-18T11:41:01.868Z,51.80
2018-08-18T11:43:33.997Z,51.90
2018-08-18T11:46:02.383Z,51.50
2018-08-18T11:48:31.202Z,50.50
2018-08-18T11:50:59.608Z,50.50
2018-08-18T11:53:27.969Z,51.10
2018-08-18T11:55:56.341Z,51.40
2018-08-18T11:58:24.820Z,50.90
2018-08-18T12:00:55.541Z,50.40
2018-08-18T12:03:27.182Z,50.70
2018-08-18T12:05:56.709Z,50.10
2018-08-18T12:08:27.093Z,49.20
2018-08-18T12:10:57.081Z,49.00
2018-08-18T12:13:31.401Z,49.00
2018-08-18T12:16:06.301Z,48.90
2018-08-18T12:18:35.076Z,48.90
2018-08-18T12:21:04.287Z,49.00
2018-08-18T12:23:35.252Z,49.10
2018-08-18T12:26:07.039Z,48.50
2018-08-18T12:28:49.457Z,48.90
2018-08-18T12:31:20.177Z,48.90
2018-08-18T12:33:48.790Z,48.90
2018-08-18T12:36:17.362Z,48.90
2018-08-18T12:38:49.359Z,47.70
2018-08-18T12:41:17.740Z,47.90
2018-08-18T12:43:50.293Z,48.40
2018-08-18T12:46:20.801Z,47.60
2018-08-18T12:48:50.617Z,46.70
2018-08-18T12:51:19.663Z,46.90
2018-08-18T12:53:56.649Z,46.50
2018-08-18T12:56:27.196Z,46.00
2018-08-18T12:58:55.798Z,45.80
2018-08-18T13:01:45.505Z,46.30
2018-08-18T13:04:18.701Z,45.10
2018-08-18T13:06:49.132Z,45.50
2018-08-18T13:09:19.220Z,45.60
2018-08-18T13:11:49.584Z,44.80
2018-08-18T13:14:21.278Z,44.90
2018-08-18T13:16:49.618Z,44.70
2018-08-18T13:19:20.151Z,44.60
2018-08-18T13:21:48.545Z,43.90
2018-08-18T13:24:17.044Z,44.50
2018-08-18T13:26:45.430Z,44.00
2018-08-18T13:29:13.933Z,43.90
2018-08-18T13:31:43.209Z,44.00
2018-08-18T13:34:13.125Z,42.60
2018-08-18T13:36:42.633Z,43.20
2018-08-18T13:39:15.280Z,43.60
2018-08-18T13:41:44.675Z,43.10
2018-08-18T13:44:30.510Z,43.40
2018-08-18T13:46:59.000Z,42.20
2018-08-18T13:49:27.644Z,42.50
2018-08-18T13:51:56.409Z,42.00
2018-08-18T13:54:24.791Z,41.80
2018-08-18T13:56:53.189Z,41.80
2018-08-18T13:59:38.791Z,41.50
2018-08-18T14:02:08.150Z,41.30
2018-08-18T14:04:39.216Z,41.20
2018-08-18T14:07:08.166Z,40.80
2018-08-18T14:09:36.505Z,40.70
2018-08-18T14:12:10.462Z,40.70
2018-08-18T14:14:38.882Z,40.60
2018-08-18T14:17:07.604Z,40.70
2018-08-18T14:19:35.970Z,40.70
2018-08-18T14:22:07.848Z,40.80
2018-08-18T14:24:37.390Z,40.60
2018-08-18T14:27:13.163Z,40.20
2018-08-18T14:29:41.645Z,40.10
2018-08-18T14:32:17.986Z,40.10
2018-08-18T14:34:56.074Z,39.70
2018-08-18T14:37:24.452Z,39.60
2018-08-18T14:39:52.893Z,39.50
2018-08-18T14:42:21.323Z,39.10
2018-08-18T14:44:49.805Z,39.50
2018-08-18T14:47:18.177Z,39.50
2018-08-18T14:49:46.588Z,40.80
2018-08-18T14:52:15.022Z,39.00
2018-08-18T14:54:43.352Z,38.90
2018-08-18T14:57:11.718Z,38.70
2018-08-18T14:59:40.137Z,39.30
2018-08-18T15:02:08.508Z,38.50
2018-08-18T15:04:36.923Z,38.40
2018-08-18T15:07:05.463Z,38.20
2018-08-18T15:09:42.256Z,37.30
2018-08-18T15:12:10.650Z,37.10
2018-08-18T15:14:39.084Z,36.60
2018-08-18T15:17:08.179Z,36.30
2018-08-18T15:19:36.584Z,36.00
2018-08-18T15:22:09.381Z,36.50
2018-08-18T15:24:38.062Z,35.90
2018-08-18T15:27:06.710Z,36.50
2018-08-18T15:29:35.231Z,35.20
2018-08-18T15:32:03.821Z,35.20
2018-08-18T15:34:32.145Z,35.60
2018-08-18T15:37:00.724Z,36.40
2018-08-18T15:39:29.378Z,36.50
2018-08-18T15:41:59.243Z,37.50
2018-08-18T15:44:27.569Z,37.80
2018-08-18T15:46:56.340Z,37.40
2018-08-18T15:49:24.743Z,37.60
2018-08-18T15:51:53.519Z,37.80
2018-08-18T15:54:24.116Z,37.30
2018-08-18T15:56:52.633Z,37.30
2018-08-18T15:59:21.070Z,37.20
2018-08-18T16:01:49.499Z,36.70
2018-08-18T16:04:17.907Z,36.20
2018-08-18T16:06:46.623Z,36.40
2018-08-18T16:09:15.020Z,36.80
2018-08-18T16:11:43.416Z,37.40
2018-08-18T16:14:11.822Z,37.70
2018-08-18T16:17:00.324Z,38.10
2018-08-18T16:19:34.023Z,37.90
2018-08-18T16:22:03.146Z,38.00
2018-08-18T16:24:44.282Z,38.00
2018-08-18T16:27:13.100Z,37.60
2018-08-18T16:29:41.744Z,37.80
2018-08-18T16:32:27.470Z,38.10
2018-08-18T16:35:01.794Z,37.90
2018-08-18T16:37:30.831Z,38.10
2018-08-18T16:39:59.355Z,38.40
2018-08-18T16:42:27.893Z,38.80
2018-08-18T16:44:56.241Z,39.20
2018-08-18T16:47:24.624Z,39.20
2018-08-18T16:49:53.033Z,39.00
2018-08-18T16:52:21.368Z,39.00
2018-08-18T16:54:49.691Z,38.60
2018-08-18T16:57:18.048Z,39.10
2018-08-18T16:59:46.418Z,39.30
2018-08-18T17:02:33.402Z,39.70
2018-08-18T17:05:01.787Z,39.60
2018-08-18T17:07:30.224Z,39.60
2018-08-18T17:09:58.537Z,40.10
2018-08-18T17:12:29.130Z,40.30
2018-08-18T17:14:57.493Z,40.40
2018-08-18T17:17:26.300Z,40.50
2018-08-18T17:19:54.666Z,40.50
2018-08-18T17:22:23.044Z,40.50
2018-08-18T17:24:51.432Z,40.40
2018-08-18T17:27:19.780Z,40.40
2018-08-18T17:29:49.746Z,40.90
2018-08-18T17:32:18.210Z,41.20
2018-08-18T17:34:46.581Z,41.20
2018-08-18T17:37:14.995Z,41.30
2018-08-18T17:39:43.390Z,41.40
2018-08-18T17:42:18.488Z,41.90
2018-08-18T17:44:46.974Z,42.20
2018-08-18T17:47:15.417Z,42.20
2018-08-18T17:49:49.306Z,42.40
2018-08-18T17:52:17.641Z,42.50
2018-08-18T17:55:18.732Z,42.70
2018-08-18T17:57:47.081Z,42.90
2018-08-18T18:00:18.655Z,43.20
2018-08-18T18:02:53.450Z,43.80
2018-08-18T18:05:26.744Z,43.60
2018-08-18T18:08:00.701Z,43.60
2018-08-18T18:10:35.959Z,43.80
2018-08-18T18:13:15.902Z,44.00
2018-08-18T18:15:45.707Z,44.20
2018-08-18T18:18:16.679Z,44.60
2018-08-18T18:20:47.393Z,44.40
2018-08-18T18:23:16.297Z,44.40
2018-08-18T18:25:44.809Z,44.60
2018-08-18T18:28:13.208Z,44.80
2018-08-18T18:30:41.657Z,44.90
2018-08-18T18:33:10.865Z,45.10
2018-08-18T18:35:39.537Z,45.10
2018-08-18T18:38:08.038Z,45.30
2018-08-18T18:40:42.518Z,45.50
2018-08-18T18:43:10.902Z,45.50
2018-08-18T18:45:39.467Z,46.30
2018-08-18T18:48:11.286Z,45.80
2018-08-18T18:50:39.800Z,45.90
2018-08-18T18:53:08.220Z,46.80
2018-08-18T18:55:52.924Z,46.50
2018-08-18T18:58:21.366Z,46.80
2018-08-18T19:01:27.426Z,46.70
2018-08-18T19:03:55.824Z,47.00
2018-08-18T19:06:24.203Z,47.40
2018-08-18T19:09:00.641Z,47.80
2018-08-18T19:11:29.265Z,47.80
2018-08-18T19:13:58.661Z,47.80
2018-08-18T19:16:27.166Z,48.10
2018-08-18T19:18:55.439Z,48.60
2018-08-18T19:21:30.895Z,48.70
2018-08-18T19:24:00.559Z,48.70
2018-08-18T19:26:45.440Z,48.70
2018-08-18T19:29:13.752Z,48.70
2018-08-18T19:31:42.124Z,48.80
2018-08-18T19:34:13.433Z,49.10
2018-08-18T19:36:55.937Z,48.90
2018-08-18T19:39:26.907Z,49.60
2018-08-18T19:42:10.207Z,49.70
2018-08-18T19:44:42.267Z,49.80
2018-08-18T19:47:10.807Z,50.00
2018-08-18T19:49:45.652Z,49.90
2018-08-18T19:52:15.090Z,50.60
2018-08-18T19:54:49.446Z,51.10
2018-08-18T19:57:24.833Z,51.00
2018-08-18T19:59:54.602Z,50.80
2018-08-18T20:02:22.957Z,51.50
2018-08-18T20:04:51.373Z,51.70
2018-08-18T20:07:19.971Z,52.20
2018-08-18T20:09:48.638Z,53.00
2018-08-18T20:12:17.033Z,53.00
2018-08-18T20:14:45.429Z,53.20
2018-08-18T20:17:13.769Z,53.30
2018-08-18T20:19:42.557Z,53.10
2018-08-18T20:22:15.526Z,53.20
2018-08-18T20:24:43.965Z,53.70
2018-08-18T20:27:12.329Z,53.10
2018-08-18T20:29:41.063Z,54.10
2018-08-18T20:32:09.850Z,53.90
2018-08-18T20:34:38.430Z,54.20
2018-08-18T20:37:06.814Z,54.30
2018-08-18T20:39:35.638Z,54.40
2018-08-18T20:42:04.050Z,54.50
2018-08-18T20:44:32.353Z,54.80
2018-08-18T20:47:00.795Z,55.20
2018-08-18T20:49:29.130Z,55.70
2018-08-18T20:51:57.518Z,56.20
2018-08-18T20:54:25.841Z,56.40
2018-08-18T20:56:54.205Z,56.40
2018-08-18T20:59:22.623Z,56.50
2018-08-18T21:01:50.980Z,56.70
2018-08-18T21:04:19.390Z,56.70
2018-08-18T21:06:47.788Z,56.70
2018-08-18T21:09:31.929Z,56.70
2018-08-18T21:12:00.317Z,56.80
2018-08-18T21:14:29.918Z,56.70
2018-08-18T21:16:58.354Z,56.70
2018-08-18T21:19:27.344Z,56.70
2018-08-18T21:21:56.454Z,56.60
2018-08-18T21:24:24.695Z,57.30
2018-08-18T21:26:53.117Z,57.20
2018-08-18T21:29:23.644Z,56.70
2018-08-18T21:31:52.076Z,56.70
2018-08-18T21:34:20.571Z,56.70
2018-08-18T21:36:48.920Z,56.70
2018-08-18T21:39:18.335Z,56.70
2018-08-18T21:41:47.525Z,56.60
2018-08-18T21:44:16.064Z,56.60
2018-08-18T21:46:44.564Z,57.10
2018-08-18T21:49:13.150Z,57.60
2018-08-18T21:51:41.578Z,57.70
2018-08-18T21:54:10.016Z,58.40
2018-08-18T21:56:41.542Z,58.40
2018-08-18T21:59:11.166Z,58.30
2018-08-18T22:01:39.800Z,58.40
2018-08-18T22:04:09.208Z,58.40
2018-08-18T22:06:37.729Z,58.70
2018-08-18T22:09:33.065Z,58.70
2018-08-18T22:12:01.848Z,58.90
2018-08-18T22:14:30.187Z,58.80
2018-08-18T22:16:58.657Z,58.80
2018-08-18T22:19:28.561Z,59.10
2018-08-18T22:21:57.006Z,59.90
2018-08-18T22:24:25.443Z,59.80
2018-08-18T22:26:53.827Z,59.60
2018-08-18T22:29:25.180Z,59.20
2018-08-18T22:31:53.657Z,59.20
2018-08-18T22:34:22.091Z,58.80
2018-08-18T22:36:54.054Z,58.70
2018-08-18T22:39:22.468Z,58.70
2018-08-18T22:41:50.856Z,58.80
2018-08-18T22:44:19.194Z,58.90
2018-08-18T22:46:47.547Z,59.00
2018-08-18T22:49:15.870Z,58.80
2018-08-18T22:51:44.314Z,58.60
2018-08-18T22:54:12.661Z,58.50
2018-08-18T22:56:41.569Z,58.00
2018-08-18T22:59:09.905Z,58.10
2018-08-18T23:01:38.235Z,58.40
2018-08-18T23:04:27.793Z,58.40
2018-08-18T23:06:56.795Z,58.40
2018-08-18T23:09:25.417Z,58.90
2018-08-18T23:11:54.805Z,59.20
2018-08-18T23:14:23.293Z,59.00
2018-08-18T23:16:52.340Z,59.50
2018-08-18T23:19:20.958Z,59.90
2018-08-18T23:21:49.336Z,59.80
2018-08-18T23:24:28.966Z,60.00
2018-08-18T23:26:57.726Z,59.80
2018-08-18T23:29:26.256Z,59.80
2018-08-18T23:31:55.101Z,59.30
2018-08-18T23:34:23.713Z,58.80
2018-08-18T23:36:52.634Z,58.70
2018-08-18T23:39:20.993Z,58.50
2018-08-18T23:42:00.438Z,59.10
2018-08-18T23:44:29.082Z,59.20
2018-08-18T23:46:57.430Z,58.80
2018-08-18T23:49:25.752Z,58.90
2018-08-18T23:51:54.206Z,59.10
2018-08-18T23:54:23.500Z,59.20
2018-08-18T23:56:52.504Z,58.70
2018-08-18T23:59:22.775Z,58.50
